sensor_id;sensor_type;location;lat;lon;timestamp;P1;durP1;ratioP1;P2;durP2;ratioP2
25581;SDS011;13462;50.764;4.332;2022-11-15T00:02:29;43.28;;;27.63;;
25581;SDS011;13462;50.764;4.332;2022-11-15T00:04:32;54.17;;;30.17;;
25581;SDS011;13462;50.764;4.332;2022-11-15T00:07:08;47.90;;;29.50;;
25581;SDS011;13462;50.764;4.332;2022-11-15T00:09:34;48.72;;;29.42;;
25581;SDS011;13462;50.764;4.332;2022-11-15T00:12:00;44.00;;;27.25;;
25581;SDS011;13462;50.764;4.332;2022-11-15T00:14:28;45.30;;;30.35;;
25581;SDS011;13462;50.764;4.332;2022-11-15T00:16:54;47.33;;;28.27;;
25581;SDS011;13462;50.764;4.332;2022-11-15T00:19:23;48.75;;;29.92;;
25581;SDS011;13462;50.764;4.332;2022-11-15T00:21:49;48.80;;;30.60;;
25581;SDS011;13462;50.764;4.332;2022-11-15T00:24:15;48.80;;;29.02;;
25581;SDS011;13462;50.764;4.332;2022-11-15T00:26:40;53.85;;;29.63;;
25581;SDS011;13462;50.764;4.332;2022-11-15T00:29:06;45.53;;;29.15;;
25581;SDS011;13462;50.764;4.332;2022-11-15T00:31:32;48.30;;;30.17;;
25581;SDS011;13462;50.764;4.332;2022-11-15T00:33:58;45.22;;;29.38;;
25581;SDS011;13462;50.764;4.332;2022-11-15T00:36:24;46.63;;;29.08;;
25581;SDS011;13462;50.764;4.332;2022-11-15T00:38:53;53.50;;;30.45;;
25581;SDS011;13462;50.764;4.332;2022-11-15T00:41:19;57.88;;;32.58;;
25581;SDS011;13462;50.764;4.332;2022-11-15T00:43:44;57.70;;;33.05;;
25581;SDS011;13462;50.764;4.332;2022-11-15T00:46:10;52.05;;;30.98;;
25581;SDS011;13462;50.764;4.332;2022-11-15T00:48:36;53.08;;;31.20;;
25581;SDS011;13462;50.764;4.332;2022-11-15T00:51:05;52.92;;;32.80;;
25581;SDS011;13462;50.764;4.332;2022-11-15T00:53:31;51.20;;;31.23;;
25581;SDS011;13462;50.764;4.332;2022-11-15T00:55:56;59.47;;;33.92;;
25581;SDS011;13462;50.764;4.332;2022-11-15T00:58:22;58.03;;;34.45;;
25581;SDS011;13462;50.764;4.332;2022-11-15T01:00:48;56.42;;;33.25;;
25581;SDS011;13462;50.764;4.332;2022-11-15T01:03:14;59.78;;;34.10;;
25581;SDS011;13462;50.764;4.332;2022-11-15T01:05:40;64.03;;;34.13;;
25581;SDS011;13462;50.764;4.332;2022-11-15T01:08:05;54.20;;;33.05;;
25581;SDS011;13462;50.764;4.332;2022-11-15T01:10:31;56.00;;;34.03;;
25581;SDS011;13462;50.764;4.332;2022-11-15T01:12:57;55.60;;;33.75;;
25581;SDS011;13462;50.764;4.332;2022-11-15T01:15:23;57.88;;;33.97;;
25581;SDS011;13462;50.764;4.332;2022-11-15T01:17:52;55.95;;;31.63;;
25581;SDS011;13462;50.764;4.332;2022-11-15T01:20:17;52.90;;;30.80;;
25581;SDS011;13462;50.764;4.332;2022-11-15T01:22:43;52.15;;;32.03;;
25581;SDS011;13462;50.764;4.332;2022-11-15T01:25:09;48.35;;;29.45;;
25581;SDS011;13462;50.764;4.332;2022-11-15T01:27:35;50.20;;;28.38;;
25581;SDS011;13462;50.764;4.332;2022-11-15T01:30:01;41.05;;;27.20;;
25581;SDS011;13462;50.764;4.332;2022-11-15T01:32:27;40.05;;;27.27;;
25581;SDS011;13462;50.764;4.332;2022-11-15T01:34:53;44.25;;;26.75;;
25581;SDS011;13462;50.764;4.332;2022-11-15T01:37:18;37.45;;;23.95;;
25581;SDS011;13462;50.764;4.332;2022-11-15T01:39:47;42.55;;;24.95;;
25581;SDS011;13462;50.764;4.332;2022-11-15T01:42:13;40.55;;;23.90;;
25581;SDS011;13462;50.764;4.332;2022-11-15T01:44:41;39.58;;;22.17;;
25581;SDS011;13462;50.764;4.332;2022-11-15T01:47:18;34.42;;;22.50;;
25581;SDS011;13462;50.764;4.332;2022-11-15T01:50:06;36.67;;;22.08;;
25581;SDS011;13462;50.764;4.332;2022-11-15T01:52:35;36.05;;;21.90;;
25581;SDS011;13462;50.764;4.332;2022-11-15T01:58:03;33.67;;;21.05;;
25581;SDS011;13462;50.764;4.332;2022-11-15T02:00:33;33.00;;;21.00;;
25581;SDS011;13462;50.764;4.332;2022-11-15T02:09:45;35.70;;;23.50;;
25581;SDS011;13462;50.764;4.332;2022-11-15T02:12:42;32.92;;;22.20;;
25581;SDS011;13462;50.764;4.332;2022-11-15T02:15:11;36.70;;;21.50;;
25581;SDS011;13462;50.764;4.332;2022-11-15T02:20:52;35.13;;;21.35;;
25581;SDS011;13462;50.764;4.332;2022-11-15T02:37:00;32.08;;;18.85;;
25581;SDS011;13462;50.764;4.332;2022-11-15T02:39:40;36.03;;;20.97;;
25581;SDS011;13462;50.764;4.332;2022-11-15T02:42:41;36.15;;;20.98;;
25581;SDS011;13462;50.764;4.332;2022-11-15T02:45:33;32.97;;;20.23;;
25581;SDS011;13462;50.764;4.332;2022-11-15T02:48:12;30.92;;;18.10;;
25581;SDS011;13462;50.764;4.332;2022-11-15T02:50:38;30.98;;;17.67;;
25581;SDS011;13462;50.764;4.332;2022-11-15T02:53:05;31.25;;;18.85;;
25581;SDS011;13462;50.764;4.332;2022-11-15T03:00:59;28.73;;;18.80;;
25581;SDS011;13462;50.764;4.332;2022-11-15T03:03:29;28.10;;;15.63;;
25581;SDS011;13462;50.764;4.332;2022-11-15T03:09:10;29.05;;;14.88;;
25581;SDS011;13462;50.764;4.332;2022-11-15T03:12:03;26.75;;;14.48;;
25581;SDS011;13462;50.764;4.332;2022-11-15T03:15:00;23.23;;;14.35;;
25581;SDS011;13462;50.764;4.332;2022-11-15T03:17:37;26.35;;;15.43;;
25581;SDS011;13462;50.764;4.332;2022-11-15T03:20:11;23.85;;;13.50;;
25581;SDS011;13462;50.764;4.332;2022-11-15T03:22:40;20.88;;;13.60;;
25581;SDS011;13462;50.764;4.332;2022-11-15T03:25:09;24.33;;;13.80;;
25581;SDS011;13462;50.764;4.332;2022-11-15T03:27:40;26.15;;;11.68;;
25581;SDS011;13462;50.764;4.332;2022-11-15T03:30:11;16.85;;;11.23;;
25581;SDS011;13462;50.764;4.332;2022-11-15T03:32:38;20.17;;;10.88;;
25581;SDS011;13462;50.764;4.332;2022-11-15T03:35:23;18.75;;;11.35;;
25581;SDS011;13462;50.764;4.332;2022-11-15T03:37:54;16.95;;;10.70;;
25581;SDS011;13462;50.764;4.332;2022-11-15T03:40:59;16.70;;;10.32;;
25581;SDS011;13462;50.764;4.332;2022-11-15T03:46:33;17.33;;;10.52;;
25581;SDS011;13462;50.764;4.332;2022-11-15T03:49:24;16.63;;;9.32;;
25581;SDS011;13462;50.764;4.332;2022-11-15T03:51:55;17.25;;;9.63;;
25581;SDS011;13462;50.764;4.332;2022-11-15T03:54:22;16.17;;;9.88;;
25581;SDS011;13462;50.764;4.332;2022-11-15T03:56:48;15.50;;;10.00;;
25581;SDS011;13462;50.764;4.332;2022-11-15T03:59:13;22.42;;;10.77;;
25581;SDS011;13462;50.764;4.332;2022-11-15T04:01:39;17.42;;;10.63;;
25581;SDS011;13462;50.764;4.332;2022-11-15T04:04:05;24.80;;;11.82;;
25581;SDS011;13462;50.764;4.332;2022-11-15T04:06:31;17.35;;;11.02;;
25581;SDS011;13462;50.764;4.332;2022-11-15T04:08:56;22.83;;;11.95;;
25581;SDS011;13462;50.764;4.332;2022-11-15T04:11:22;21.25;;;11.40;;
25581;SDS011;13462;50.764;4.332;2022-11-15T04:13:47;23.20;;;11.80;;
25581;SDS011;13462;50.764;4.332;2022-11-15T04:16:13;19.10;;;12.10;;
25581;SDS011;13462;50.764;4.332;2022-11-15T04:18:39;16.95;;;11.15;;
25581;SDS011;13462;50.764;4.332;2022-11-15T04:21:05;19.95;;;11.27;;
25581;SDS011;13462;50.764;4.332;2022-11-15T04:23:49;18.58;;;11.18;;
25581;SDS011;13462;50.764;4.332;2022-11-15T04:26:22;21.08;;;11.48;;
25581;SDS011;13462;50.764;4.332;2022-11-15T04:28:49;14.32;;;9.73;;
25581;SDS011;13462;50.764;4.332;2022-11-15T04:31:33;15.98;;;10.10;;
25581;SDS011;13462;50.764;4.332;2022-11-15T04:33:59;17.23;;;10.65;;
25581;SDS011;13462;50.764;4.332;2022-11-15T04:36:25;21.73;;;10.05;;
25581;SDS011;13462;50.764;4.332;2022-11-15T04:39:09;16.48;;;8.55;;
25581;SDS011;13462;50.764;4.332;2022-11-15T04:41:35;21.45;;;10.18;;
25581;SDS011;13462;50.764;4.332;2022-11-15T04:44:00;11.70;;;7.68;;
25581;SDS011;13462;50.764;4.332;2022-11-15T04:46:26;15.70;;;8.82;;
25581;SDS011;13462;50.764;4.332;2022-11-15T04:48:52;15.70;;;7.63;;
25581;SDS011;13462;50.764;4.332;2022-11-15T04:51:19;12.80;;;8.70;;
25581;SDS011;13462;50.764;4.332;2022-11-15T04:53:45;14.50;;;8.43;;
25581;SDS011;13462;50.764;4.332;2022-11-15T04:56:10;14.48;;;8.82;;
25581;SDS011;13462;50.764;4.332;2022-11-15T04:58:37;17.40;;;8.27;;
25581;SDS011;13462;50.764;4.332;2022-11-15T05:01:06;13.15;;;8.07;;
25581;SDS011;13462;50.764;4.332;2022-11-15T05:03:36;18.75;;;7.68;;
25581;SDS011;13462;50.764;4.332;2022-11-15T05:06:21;16.02;;;7.45;;
25581;SDS011;13462;50.764;4.332;2022-11-15T05:08:47;11.30;;;7.50;;
25581;SDS011;13462;50.764;4.332;2022-11-15T05:11:12;19.15;;;8.35;;
25581;SDS011;13462;50.764;4.332;2022-11-15T05:13:38;17.48;;;8.23;;
25581;SDS011;13462;50.764;4.332;2022-11-15T05:16:04;11.45;;;7.57;;
25581;SDS011;13462;50.764;4.332;2022-11-15T05:18:32;11.70;;;7.60;;
25581;SDS011;13462;50.764;4.332;2022-11-15T05:21:05;20.42;;;8.10;;
25581;SDS011;13462;50.764;4.332;2022-11-15T05:26:08;18.15;;;8.10;;
25581;SDS011;13462;50.764;4.332;2022-11-15T05:28:35;12.82;;;8.00;;
25581;SDS011;13462;50.764;4.332;2022-11-15T05:31:05;16.38;;;7.85;;
25581;SDS011;13462;50.764;4.332;2022-11-15T05:33:35;21.67;;;7.95;;
25581;SDS011;13462;50.764;4.332;2022-11-15T05:36:06;18.67;;;7.95;;
25581;SDS011;13462;50.764;4.332;2022-11-15T05:38:44;17.40;;;7.85;;
25581;SDS011;13462;50.764;4.332;2022-11-15T05:41:14;14.13;;;7.78;;
25581;SDS011;13462;50.764;4.332;2022-11-15T05:43:42;16.13;;;8.50;;
25581;SDS011;13462;50.764;4.332;2022-11-15T05:46:09;22.13;;;9.05;;
25581;SDS011;13462;50.764;4.332;2022-11-15T05:48:35;18.73;;;8.40;;
25581;SDS011;13462;50.764;4.332;2022-11-15T05:51:02;15.88;;;10.25;;
25581;SDS011;13462;50.764;4.332;2022-11-15T05:53:32;20.65;;;9.35;;
25581;SDS011;13462;50.764;4.332;2022-11-15T05:55:58;13.68;;;8.80;;
25581;SDS011;13462;50.764;4.332;2022-11-15T05:58:24;22.40;;;8.93;;
25581;SDS011;13462;50.764;4.332;2022-11-15T06:00:50;20.35;;;8.90;;
25581;SDS011;13462;50.764;4.332;2022-11-15T06:03:18;20.10;;;8.20;;
25581;SDS011;13462;50.764;4.332;2022-11-15T06:05:44;12.70;;;7.95;;
25581;SDS011;13462;50.764;4.332;2022-11-15T06:08:12;16.75;;;7.93;;
25581;SDS011;13462;50.764;4.332;2022-11-15T06:10:38;11.60;;;7.82;;
25581;SDS011;13462;50.764;4.332;2022-11-15T06:13:04;12.75;;;7.60;;
25581;SDS011;13462;50.764;4.332;2022-11-15T06:15:31;10.88;;;7.07;;
25581;SDS011;13462;50.764;4.332;2022-11-15T06:17:58;15.18;;;7.82;;
25581;SDS011;13462;50.764;4.332;2022-11-15T06:20:24;16.38;;;7.95;;
25581;SDS011;13462;50.764;4.332;2022-11-15T06:22:55;13.05;;;7.40;;
25581;SDS011;13462;50.764;4.332;2022-11-15T06:25:22;11.30;;;7.80;;
25581;SDS011;13462;50.764;4.332;2022-11-15T06:27:54;11.25;;;7.28;;
25581;SDS011;13462;50.764;4.332;2022-11-15T06:30:21;17.17;;;8.55;;
25581;SDS011;13462;50.764;4.332;2022-11-15T06:32:48;17.48;;;8.25;;
25581;SDS011;13462;50.764;4.332;2022-11-15T06:35:25;10.63;;;6.88;;
25581;SDS011;13462;50.764;4.332;2022-11-15T06:37:51;12.48;;;7.40;;
25581;SDS011;13462;50.764;4.332;2022-11-15T06:43:12;14.13;;;7.15;;
25581;SDS011;13462;50.764;4.332;2022-11-15T06:45:40;18.42;;;8.02;;
25581;SDS011;13462;50.764;4.332;2022-11-15T06:48:39;15.80;;;7.47;;
25581;SDS011;13462;50.764;4.332;2022-11-15T06:51:04;16.23;;;7.22;;
25581;SDS011;13462;50.764;4.332;2022-11-15T06:53:30;14.48;;;8.10;;
25581;SDS011;13462;50.764;4.332;2022-11-15T06:56:03;19.15;;;9.52;;
25581;SDS011;13462;50.764;4.332;2022-11-15T06:58:30;10.70;;;7.57;;
25581;SDS011;13462;50.764;4.332;2022-11-15T07:01:04;14.25;;;7.85;;
25581;SDS011;13462;50.764;4.332;2022-11-15T07:03:33;17.88;;;8.77;;
25581;SDS011;13462;50.764;4.332;2022-11-15T07:06:01;13.18;;;7.40;;
25581;SDS011;13462;50.764;4.332;2022-11-15T07:08:28;13.45;;;8.35;;
25581;SDS011;13462;50.764;4.332;2022-11-15T07:10:54;17.65;;;8.65;;
25581;SDS011;13462;50.764;4.332;2022-11-15T07:13:26;9.88;;;7.60;;
25581;SDS011;13462;50.764;4.332;2022-11-15T07:15:52;14.75;;;7.85;;
25581;SDS011;13462;50.764;4.332;2022-11-15T07:18:18;14.63;;;8.05;;
25581;SDS011;13462;50.764;4.332;2022-11-15T07:20:44;14.48;;;8.43;;
25581;SDS011;13462;50.764;4.332;2022-11-15T07:23:09;12.90;;;8.23;;
25581;SDS011;13462;50.764;4.332;2022-11-15T07:25:35;15.68;;;7.95;;
25581;SDS011;13462;50.764;4.332;2022-11-15T07:28:11;12.65;;;8.73;;
25581;SDS011;13462;50.764;4.332;2022-11-15T07:30:37;13.38;;;7.88;;
25581;SDS011;13462;50.764;4.332;2022-11-15T07:33:05;12.00;;;7.47;;
25581;SDS011;13462;50.764;4.332;2022-11-15T07:35:31;13.52;;;8.02;;
25581;SDS011;13462;50.764;4.332;2022-11-15T07:37:57;14.18;;;8.75;;
25581;SDS011;13462;50.764;4.332;2022-11-15T07:40:24;22.55;;;9.35;;
25581;SDS011;13462;50.764;4.332;2022-11-15T07:42:51;9.95;;;7.47;;
25581;SDS011;13462;50.764;4.332;2022-11-15T07:45:21;12.80;;;7.18;;
25581;SDS011;13462;50.764;4.332;2022-11-15T07:47:51;14.45;;;7.75;;
25581;SDS011;13462;50.764;4.332;2022-11-15T07:50:17;18.00;;;7.32;;
25581;SDS011;13462;50.764;4.332;2022-11-15T07:52:44;15.20;;;6.78;;
25581;SDS011;13462;50.764;4.332;2022-11-15T07:55:10;8.55;;;5.72;;
25581;SDS011;13462;50.764;4.332;2022-11-15T07:57:36;12.13;;;6.63;;
25581;SDS011;13462;50.764;4.332;2022-11-15T08:00:03;13.40;;;5.95;;
25581;SDS011;13462;50.764;4.332;2022-11-15T08:05:10;13.02;;;6.28;;
25581;SDS011;13462;50.764;4.332;2022-11-15T08:07:36;9.13;;;5.55;;
25581;SDS011;13462;50.764;4.332;2022-11-15T08:10:03;9.07;;;5.50;;
25581;SDS011;13462;50.764;4.332;2022-11-15T08:12:31;8.02;;;5.07;;
25581;SDS011;13462;50.764;4.332;2022-11-15T08:15:00;13.02;;;6.60;;
25581;SDS011;13462;50.764;4.332;2022-11-15T08:20:05;11.20;;;6.30;;
25581;SDS011;13462;50.764;4.332;2022-11-15T08:22:34;8.77;;;5.63;;
25581;SDS011;13462;50.764;4.332;2022-11-15T08:24:59;7.18;;;5.68;;
25581;SDS011;13462;50.764;4.332;2022-11-15T08:27:25;6.55;;;4.88;;
25581;SDS011;13462;50.764;4.332;2022-11-15T08:29:51;7.68;;;4.50;;
25581;SDS011;13462;50.764;4.332;2022-11-15T08:32:19;6.63;;;3.85;;
25581;SDS011;13462;50.764;4.332;2022-11-15T08:34:44;7.10;;;3.85;;
25581;SDS011;13462;50.764;4.332;2022-11-15T08:37:10;4.75;;;3.40;;
25581;SDS011;13462;50.764;4.332;2022-11-15T08:39:36;6.28;;;2.90;;
25581;SDS011;13462;50.764;4.332;2022-11-15T08:42:02;8.95;;;3.53;;
25581;SDS011;13462;50.764;4.332;2022-11-15T08:44:28;6.55;;;3.33;;
25581;SDS011;13462;50.764;4.332;2022-11-15T08:46:54;9.48;;;3.33;;
25581;SDS011;13462;50.764;4.332;2022-11-15T08:49:23;7.03;;;4.18;;
25581;SDS011;13462;50.764;4.332;2022-11-15T08:51:48;6.05;;;3.53;;
25581;SDS011;13462;50.764;4.332;2022-11-15T08:54:14;7.78;;;3.35;;
25581;SDS011;13462;50.764;4.332;2022-11-15T08:56:40;7.90;;;3.30;;
25581;SDS011;13462;50.764;4.332;2022-11-15T08:59:06;7.45;;;3.70;;
25581;SDS011;13462;50.764;4.332;2022-11-15T09:01:31;11.70;;;2.78;;
25581;SDS011;13462;50.764;4.332;2022-11-15T09:03:57;12.43;;;3.13;;
25581;SDS011;13462;50.764;4.332;2022-11-15T09:06:23;6.07;;;3.17;;
25581;SDS011;13462;50.764;4.332;2022-11-15T09:08:49;8.30;;;2.70;;
25581;SDS011;13462;50.764;4.332;2022-11-15T09:11:14;6.30;;;2.80;;
25581;SDS011;13462;50.764;4.332;2022-11-15T09:13:42;6.43;;;2.47;;
25581;SDS011;13462;50.764;4.332;2022-11-15T09:16:08;9.25;;;2.63;;
25581;SDS011;13462;50.764;4.332;2022-11-15T09:18:39;5.53;;;3.03;;
25581;SDS011;13462;50.764;4.332;2022-11-15T09:21:04;6.57;;;2.80;;
25581;SDS011;13462;50.764;4.332;2022-11-15T09:23:33;6.97;;;2.10;;
25581;SDS011;13462;50.764;4.332;2022-11-15T09:26:02;7.22;;;2.50;;
25581;SDS011;13462;50.764;4.332;2022-11-15T09:31:08;5.28;;;2.25;;
25581;SDS011;13462;50.764;4.332;2022-11-15T09:33:35;7.82;;;2.83;;
25581;SDS011;13462;50.764;4.332;2022-11-15T09:36:04;6.55;;;2.28;;
25581;SDS011;13462;50.764;4.332;2022-11-15T09:38:32;6.82;;;2.35;;
25581;SDS011;13462;50.764;4.332;2022-11-15T09:46:40;7.55;;;2.00;;
25581;SDS011;13462;50.764;4.332;2022-11-15T09:49:07;6.72;;;1.98;;
25581;SDS011;13462;50.764;4.332;2022-11-15T09:51:39;8.68;;;2.40;;
25581;SDS011;13462;50.764;4.332;2022-11-15T10:00:19;5.90;;;2.35;;
25581;SDS011;13462;50.764;4.332;2022-11-15T10:06:30;3.72;;;1.77;;
25581;SDS011;13462;50.764;4.332;2022-11-15T10:11:51;7.43;;;2.75;;
25581;SDS011;13462;50.764;4.332;2022-11-15T10:14:23;6.70;;;2.13;;
25581;SDS011;13462;50.764;4.332;2022-11-15T10:19:41;11.00;;;2.53;;
25581;SDS011;13462;50.764;4.332;2022-11-15T10:24:52;8.80;;;2.08;;
25581;SDS011;13462;50.764;4.332;2022-11-15T10:27:33;6.18;;;1.80;;
25581;SDS011;13462;50.764;4.332;2022-11-15T10:29:59;10.48;;;2.78;;
25581;SDS011;13462;50.764;4.332;2022-11-15T10:32:25;8.75;;;2.00;;
25581;SDS011;13462;50.764;4.332;2022-11-15T10:41:07;8.15;;;2.15;;
25581;SDS011;13462;50.764;4.332;2022-11-15T10:43:33;9.38;;;2.58;;
25581;SDS011;13462;50.764;4.332;2022-11-15T10:45:58;10.35;;;2.10;;
25581;SDS011;13462;50.764;4.332;2022-11-15T10:48:52;10.63;;;2.25;;
25581;SDS011;13462;50.764;4.332;2022-11-15T10:51:27;8.05;;;1.83;;
25581;SDS011;13462;50.764;4.332;2022-11-15T10:53:57;4.75;;;2.25;;
25581;SDS011;13462;50.764;4.332;2022-11-15T10:56:25;7.50;;;2.03;;
25581;SDS011;13462;50.764;4.332;2022-11-15T10:59:00;9.65;;;2.55;;
25581;SDS011;13462;50.764;4.332;2022-11-15T11:01:27;6.55;;;1.83;;
25581;SDS011;13462;50.764;4.332;2022-11-15T11:04:03;6.35;;;1.98;;
25581;SDS011;13462;50.764;4.332;2022-11-15T11:06:31;8.30;;;2.22;;
25581;SDS011;13462;50.764;4.332;2022-11-15T11:12:26;8.50;;;2.28;;
25581;SDS011;13462;50.764;4.332;2022-11-15T11:14:54;12.18;;;2.33;;
25581;SDS011;13462;50.764;4.332;2022-11-15T11:34:58;7.22;;;1.90;;
25581;SDS011;13462;50.764;4.332;2022-11-15T11:37:53;12.75;;;2.33;;
25581;SDS011;13462;50.764;4.332;2022-11-15T11:40:43;7.10;;;1.75;;
25581;SDS011;13462;50.764;4.332;2022-11-15T11:48:42;4.50;;;2.08;;
25581;SDS011;13462;50.764;4.332;2022-11-15T11:51:18;6.90;;;1.88;;
25581;SDS011;13462;50.764;4.332;2022-11-15T11:54:12;9.07;;;2.00;;
25581;SDS011;13462;50.764;4.332;2022-11-15T11:56:44;5.97;;;1.70;;
25581;SDS011;13462;50.764;4.332;2022-11-15T11:59:30;7.22;;;2.60;;
25581;SDS011;13462;50.764;4.332;2022-11-15T12:02:31;6.20;;;2.50;;
25581;SDS011;13462;50.764;4.332;2022-11-15T12:05:04;7.53;;;2.50;;
25581;SDS011;13462;50.764;4.332;2022-11-15T12:07:40;8.27;;;2.17;;
25581;SDS011;13462;50.764;4.332;2022-11-15T12:10:19;9.02;;;1.95;;
25581;SDS011;13462;50.764;4.332;2022-11-15T12:12:56;4.95;;;2.00;;
25581;SDS011;13462;50.764;4.332;2022-11-15T12:15:40;7.78;;;2.00;;
25581;SDS011;13462;50.764;4.332;2022-11-15T12:18:12;7.80;;;2.63;;
25581;SDS011;13462;50.764;4.332;2022-11-15T12:20:41;6.38;;;2.20;;
25581;SDS011;13462;50.764;4.332;2022-11-15T12:23:23;8.05;;;2.72;;
25581;SDS011;13462;50.764;4.332;2022-11-15T12:31:15;6.32;;;2.33;;
25581;SDS011;13462;50.764;4.332;2022-11-15T12:34:02;4.65;;;2.22;;
25581;SDS011;13462;50.764;4.332;2022-11-15T12:36:40;7.28;;;2.42;;
25581;SDS011;13462;50.764;4.332;2022-11-15T12:39:09;3.00;;;2.00;;
25581;SDS011;13462;50.764;4.332;2022-11-15T12:44:09;6.75;;;2.25;;
25581;SDS011;13462;50.764;4.332;2022-11-15T13:07:59;4.10;;;2.17;;
25581;SDS011;13462;50.764;4.332;2022-11-15T13:13:09;6.07;;;2.33;;
25581;SDS011;13462;50.764;4.332;2022-11-15T13:15:45;6.80;;;2.42;;
25581;SDS011;13462;50.764;4.332;2022-11-15T13:18:35;5.65;;;1.90;;
25581;SDS011;13462;50.764;4.332;2022-11-15T13:21:04;6.28;;;2.08;;
25581;SDS011;13462;50.764;4.332;2022-11-15T13:24:10;6.80;;;2.38;;
25581;SDS011;13462;50.764;4.332;2022-11-15T13:26:40;5.43;;;1.88;;
25581;SDS011;13462;50.764;4.332;2022-11-15T13:29:18;4.90;;;2.05;;
25581;SDS011;13462;50.764;4.332;2022-11-15T13:31:45;9.40;;;2.20;;
25581;SDS011;13462;50.764;4.332;2022-11-15T13:37:02;6.83;;;2.70;;
25581;SDS011;13462;50.764;4.332;2022-11-15T13:39:38;2.40;;;1.83;;
25581;SDS011;13462;50.764;4.332;2022-11-15T13:42:03;5.70;;;2.40;;
25581;SDS011;13462;50.764;4.332;2022-11-15T13:44:30;6.55;;;1.95;;
25581;SDS011;13462;50.764;4.332;2022-11-15T13:47:01;11.63;;;2.42;;
25581;SDS011;13462;50.764;4.332;2022-11-15T13:49:31;5.03;;;2.17;;
25581;SDS011;13462;50.764;4.332;2022-11-15T13:51:59;5.00;;;1.70;;
25581;SDS011;13462;50.764;4.332;2022-11-15T13:54:33;2.35;;;1.90;;
25581;SDS011;13462;50.764;4.332;2022-11-15T13:57:18;4.88;;;1.95;;
25581;SDS011;13462;50.764;4.332;2022-11-15T14:03:08;3.67;;;2.17;;
25581;SDS011;13462;50.764;4.332;2022-11-15T14:05:41;5.13;;;2.17;;
25581;SDS011;13462;50.764;4.332;2022-11-15T14:10:44;6.72;;;2.33;;
25581;SDS011;13462;50.764;4.332;2022-11-15T14:13:29;4.60;;;2.15;;
25581;SDS011;13462;50.764;4.332;2022-11-15T14:21:14;3.83;;;2.30;;
25581;SDS011;13462;50.764;4.332;2022-11-15T14:23:41;3.30;;;2.25;;
25581;SDS011;13462;50.764;4.332;2022-11-15T14:29:41;4.97;;;2.40;;
25581;SDS011;13462;50.764;4.332;2022-11-15T14:31:52;3.95;;;2.53;;
25581;SDS011;13462;50.764;4.332;2022-11-15T14:34:19;7.10;;;2.90;;
25581;SDS011;13462;50.764;4.332;2022-11-15T14:36:54;4.38;;;2.08;;
25581;SDS011;13462;50.764;4.332;2022-11-15T14:43:26;7.35;;;2.90;;
25581;SDS011;13462;50.764;4.332;2022-11-15T14:45:52;5.95;;;2.92;;
25581;SDS011;13462;50.764;4.332;2022-11-15T14:48:18;3.92;;;2.38;;
25581;SDS011;13462;50.764;4.332;2022-11-15T14:50:47;3.65;;;2.50;;
25581;SDS011;13462;50.764;4.332;2022-11-15T14:53:14;6.45;;;2.92;;
25581;SDS011;13462;50.764;4.332;2022-11-15T14:55:44;5.40;;;2.83;;
25581;SDS011;13462;50.764;4.332;2022-11-15T14:58:10;6.40;;;2.80;;
25581;SDS011;13462;50.764;4.332;2022-11-15T15:00:40;4.55;;;3.17;;
25581;SDS011;13462;50.764;4.332;2022-11-15T15:03:06;4.88;;;3.40;;
25581;SDS011;13462;50.764;4.332;2022-11-15T15:05:42;5.22;;;2.90;;
25581;SDS011;13462;50.764;4.332;2022-11-15T15:08:19;10.85;;;3.45;;
25581;SDS011;13462;50.764;4.332;2022-11-15T15:10:45;7.70;;;3.72;;
25581;SDS011;13462;50.764;4.332;2022-11-15T15:13:18;6.40;;;4.03;;
25581;SDS011;13462;50.764;4.332;2022-11-15T15:15:49;6.45;;;3.58;;
25581;SDS011;13462;50.764;4.332;2022-11-15T15:18:16;11.02;;;4.18;;
25581;SDS011;13462;50.764;4.332;2022-11-15T15:20:45;7.03;;;4.05;;
25581;SDS011;13462;50.764;4.332;2022-11-15T15:23:17;8.35;;;4.53;;
25581;SDS011;13462;50.764;4.332;2022-11-15T15:25:45;8.68;;;4.97;;
25581;SDS011;13462;50.764;4.332;2022-11-15T15:28:14;5.57;;;4.60;;
25581;SDS011;13462;50.764;4.332;2022-11-15T15:30:40;5.70;;;4.60;;
25581;SDS011;13462;50.764;4.332;2022-11-15T15:33:06;7.03;;;4.85;;
25581;SDS011;13462;50.764;4.332;2022-11-15T15:35:32;6.00;;;5.15;;
25581;SDS011;13462;50.764;4.332;2022-11-15T15:37:59;7.43;;;4.70;;
25581;SDS011;13462;50.764;4.332;2022-11-15T15:40:25;5.65;;;4.50;;
25581;SDS011;13462;50.764;4.332;2022-11-15T15:42:53;9.02;;;5.22;;
25581;SDS011;13462;50.764;4.332;2022-11-15T15:45:19;9.20;;;4.63;;
25581;SDS011;13462;50.764;4.332;2022-11-15T15:47:45;6.95;;;4.68;;
25581;SDS011;13462;50.764;4.332;2022-11-15T15:50:14;8.50;;;4.07;;
25581;SDS011;13462;50.764;4.332;2022-11-15T15:52:46;6.00;;;4.40;;
25581;SDS011;13462;50.764;4.332;2022-11-15T15:55:12;7.07;;;4.75;;
25581;SDS011;13462;50.764;4.332;2022-11-15T15:57:37;5.32;;;4.30;;
25581;SDS011;13462;50.764;4.332;2022-11-15T16:00:04;8.02;;;4.78;;
25581;SDS011;13462;50.764;4.332;2022-11-15T16:02:30;7.30;;;5.35;;
25581;SDS011;13462;50.764;4.332;2022-11-15T16:04:56;8.32;;;4.97;;
25581;SDS011;13462;50.764;4.332;2022-11-15T16:07:22;9.02;;;5.40;;
25581;SDS011;13462;50.764;4.332;2022-11-15T16:09:53;8.65;;;5.97;;
25581;SDS011;13462;50.764;4.332;2022-11-15T16:12:25;8.52;;;5.75;;
25581;SDS011;13462;50.764;4.332;2022-11-15T16:14:52;8.48;;;5.90;;
25581;SDS011;13462;50.764;4.332;2022-11-15T16:17:18;8.90;;;5.70;;
25581;SDS011;13462;50.764;4.332;2022-11-15T16:19:46;8.85;;;6.03;;
25581;SDS011;13462;50.764;4.332;2022-11-15T16:22:12;6.93;;;5.05;;
25581;SDS011;13462;50.764;4.332;2022-11-15T16:24:37;6.47;;;4.60;;
25581;SDS011;13462;50.764;4.332;2022-11-15T16:27:11;6.72;;;5.35;;
25581;SDS011;13462;50.764;4.332;2022-11-15T16:29:39;7.90;;;5.35;;
25581;SDS011;13462;50.764;4.332;2022-11-15T16:32:07;8.50;;;4.72;;
25581;SDS011;13462;50.764;4.332;2022-11-15T16:34:36;6.22;;;5.47;;
25581;SDS011;13462;50.764;4.332;2022-11-15T16:37:02;7.53;;;5.68;;
25581;SDS011;13462;50.764;4.332;2022-11-15T16:39:27;6.05;;;5.38;;
25581;SDS011;13462;50.764;4.332;2022-11-15T16:41:55;10.13;;;6.80;;
25581;SDS011;13462;50.764;4.332;2022-11-15T16:44:21;7.95;;;6.10;;
25581;SDS011;13462;50.764;4.332;2022-11-15T16:46:48;9.73;;;6.80;;
25581;SDS011;13462;50.764;4.332;2022-11-15T16:49:19;7.03;;;6.00;;
25581;SDS011;13462;50.764;4.332;2022-11-15T16:51:45;8.63;;;6.10;;
25581;SDS011;13462;50.764;4.332;2022-11-15T16:54:12;8.18;;;6.57;;
25581;SDS011;13462;50.764;4.332;2022-11-15T16:56:38;8.55;;;7.18;;
25581;SDS011;13462;50.764;4.332;2022-11-15T16:59:05;8.90;;;6.57;;
25581;SDS011;13462;50.764;4.332;2022-11-15T17:01:34;9.40;;;7.25;;
25581;SDS011;13462;50.764;4.332;2022-11-15T17:04:01;11.02;;;6.90;;
25581;SDS011;13462;50.764;4.332;2022-11-15T17:06:36;12.90;;;9.32;;
25581;SDS011;13462;50.764;4.332;2022-11-15T17:09:04;9.13;;;6.82;;
25581;SDS011;13462;50.764;4.332;2022-11-15T17:11:29;8.85;;;7.57;;
25581;SDS011;13462;50.764;4.332;2022-11-15T17:13:58;9.93;;;7.13;;
25581;SDS011;13462;50.764;4.332;2022-11-15T17:16:24;9.57;;;7.30;;
25581;SDS011;13462;50.764;4.332;2022-11-15T17:18:50;8.82;;;7.47;;
25581;SDS011;13462;50.764;4.332;2022-11-15T17:21:20;10.75;;;8.70;;
25581;SDS011;13462;50.764;4.332;2022-11-15T17:23:53;8.80;;;7.35;;
25581;SDS011;13462;50.764;4.332;2022-11-15T17:26:27;9.90;;;7.38;;
25581;SDS011;13462;50.764;4.332;2022-11-15T17:28:56;8.38;;;6.55;;
25581;SDS011;13462;50.764;4.332;2022-11-15T17:31:22;9.70;;;7.85;;
25581;SDS011;13462;50.764;4.332;2022-11-15T17:33:49;12.32;;;8.20;;
25581;SDS011;13462;50.764;4.332;2022-11-15T17:36:15;12.60;;;9.75;;